createdAt,value
2022-10-29T00:01:15.749Z,101606.81
2022-10-29T00:04:00.542Z,101616.69
2022-10-29T00:06:45.424Z,101626.69
2022-10-29T00:09:30.365Z,101606.25
2022-10-29T00:12:15.303Z,101600.66
2022-10-29T00:15:00.372Z,101594.56
2022-10-29T00:17:45.452Z,101574.94
2022-10-29T00:20:30.395Z,101561.25
2022-10-29T00:23:15.320Z,101579.50
2022-10-29T00:26:01.803Z,101591.66
2022-10-29T00:28:47.919Z,101584.75
2022-10-29T00:31:33.125Z,101580.25
2022-10-29T00:34:18.062Z,101585.50
2022-10-29T00:37:06.408Z,101580.09
2022-10-29T00:39:51.641Z,101577.28
2022-10-29T00:42:36.589Z,101573.47
2022-10-29T00:45:21.713Z,101580.50
2022-10-29T00:48:07.131Z,101577.88
2022-10-29T00:50:53.995Z,101571.66
2022-10-29T00:53:44.325Z,101542.41
2022-10-29T00:56:33.964Z,101567.13
2022-10-29T00:59:18.940Z,101562.72
2022-10-29T01:02:04.276Z,101551.44
2022-10-29T01:04:51.855Z,101561.50
2022-10-29T01:07:37.411Z,101545.84
2022-10-29T01:10:37.613Z,101550.75
2022-10-29T01:13:42.715Z,101548.31
2022-10-29T01:16:43.125Z,101548.13
2022-10-29T01:19:34.134Z,101537.63
2022-10-29T01:22:37.640Z,101533.28
2022-10-29T01:25:32.150Z,101549.63
2022-10-29T01:28:35.307Z,101528.06
2022-10-29T01:31:40.133Z,101532.19
2022-10-29T01:34:31.662Z,101540.72
2022-10-29T01:37:31.748Z,101536.31
2022-10-29T01:40:34.816Z,101524.06
2022-10-29T01:43:57.134Z,101527.59
2022-10-29T01:46:54.206Z,101514.28
2022-10-29T01:49:42.447Z,101507.56
2022-10-29T01:52:32.331Z,101503.91
2022-10-29T01:55:23.276Z,101508.78
2022-10-29T01:58:10.145Z,101501.56
2022-10-29T02:01:01.381Z,101508.41
2022-10-29T02:04:04.351Z,101501.47
2022-10-29T02:07:15.200Z,101486.69
2022-10-29T02:10:26.502Z,101490.59
2022-10-29T02:13:17.068Z,101467.66
2022-10-29T02:16:06.738Z,101460.81
2022-10-29T02:18:53.088Z,101470.91
2022-10-29T02:21:40.367Z,101462.97
2022-10-29T02:24:33.785Z,101467.00
2022-10-29T02:27:18.863Z,101457.41
2022-10-29T02:30:05.009Z,101448.63
2022-10-29T02:32:50.243Z,101444.28
2022-10-29T02:35:35.362Z,101432.00
2022-10-29T02:38:20.358Z,101439.03
2022-10-29T02:41:05.711Z,101435.19
2022-10-29T02:43:50.696Z,101425.53
2022-10-29T02:46:39.451Z,101422.53
2022-10-29T02:49:24.438Z,101418.94
2022-10-29T02:52:09.793Z,101421.50
2022-10-29T02:54:54.842Z,101396.66
2022-10-29T02:57:39.778Z,101400.75
2022-10-29T03:00:24.905Z,101386.16
2022-10-29T03:03:09.742Z,101373.94
2022-10-29T03:05:54.691Z,101361.97
2022-10-29T03:08:39.986Z,101357.75
2022-10-29T03:11:25.150Z,101357.56
2022-10-29T03:14:10.354Z,101351.72
2022-10-29T03:16:55.445Z,101349.00
2022-10-29T03:19:40.429Z,101337.94
2022-10-29T03:22:25.292Z,101333.53
2022-10-29T03:25:10.660Z,101324.81
2022-10-29T03:27:56.108Z,101324.63
2022-10-29T03:30:41.780Z,101298.66
2022-10-29T03:33:26.845Z,101322.63
2022-10-29T03:36:12.166Z,101307.19
2022-10-29T03:38:57.320Z,101311.75
2022-10-29T03:41:42.185Z,101316.88
2022-10-29T03:44:27.148Z,101309.75
2022-10-29T03:47:12.144Z,101291.09
2022-10-29T03:49:57.045Z,101290.16
2022-10-29T03:52:42.055Z,101293.78
2022-10-29T03:55:29.114Z,101282.38
2022-10-29T03:58:14.344Z,101281.50
2022-10-29T04:01:08.285Z,101274.31
2022-10-29T04:03:53.566Z,101270.91
2022-10-29T04:06:38.585Z,101276.94
2022-10-29T04:09:23.622Z,101268.09
2022-10-29T04:12:09.095Z,101265.47
2022-10-29T04:14:54.016Z,101261.28
2022-10-29T04:17:38.948Z,101258.63
2022-10-29T04:20:43.386Z,101240.16
2022-10-29T04:29:39.612Z,101238.28
2022-10-29T04:32:24.567Z,101231.88
2022-10-29T04:35:09.474Z,101223.56
2022-10-29T04:37:55.465Z,101233.75
2022-10-29T04:40:40.274Z,101221.66
2022-10-29T04:43:25.806Z,101214.00
2022-10-29T04:46:11.307Z,101218.38
2022-10-29T04:48:56.236Z,101209.13
2022-10-29T04:51:41.795Z,101206.59
2022-10-29T04:54:26.963Z,101217.63
2022-10-29T04:57:11.782Z,101210.59
2022-10-29T04:59:56.772Z,101207.13
2022-10-29T05:02:41.809Z,101200.09
2022-10-29T05:05:26.936Z,101176.66
2022-10-29T05:08:12.308Z,101179.75
2022-10-29T05:10:57.411Z,101185.94
2022-10-29T05:13:43.527Z,101185.00
2022-10-29T05:16:28.563Z,101184.81
2022-10-29T05:19:13.529Z,101181.97
2022-10-29T05:21:58.344Z,101177.44
2022-10-29T05:24:43.614Z,101184.38
2022-10-29T05:27:28.622Z,101179.97
2022-10-29T05:30:13.767Z,101170.50
2022-10-29T05:32:59.196Z,101177.66
2022-10-29T05:35:44.814Z,101150.75
2022-10-29T05:38:29.651Z,101161.69
2022-10-29T05:41:14.590Z,101159.16
2022-10-29T05:43:59.678Z,101146.38
2022-10-29T05:46:48.009Z,101155.78
2022-10-29T05:49:33.127Z,101145.50
2022-10-29T05:52:18.195Z,101140.69
2022-10-29T05:55:03.907Z,101150.13
2022-10-29T05:57:49.413Z,101159.47
2022-10-29T06:00:37.579Z,101166.31
2022-10-29T06:03:23.310Z,101158.72
2022-10-29T06:06:08.446Z,101157.69
2022-10-29T06:08:53.701Z,101149.72
2022-10-29T06:11:38.521Z,101149.72
2022-10-29T06:14:23.778Z,101133.72
2022-10-29T06:17:08.695Z,101130.13
2022-10-29T06:19:53.860Z,101122.16
2022-10-29T06:22:39.372Z,101113.09
2022-10-29T06:25:25.521Z,101087.56
2022-10-29T06:28:15.012Z,101083.66
2022-10-29T06:31:00.308Z,101075.66
2022-10-29T06:33:45.475Z,101079.13
2022-10-29T06:36:30.368Z,101088.50
2022-10-29T06:39:15.160Z,101096.25
2022-10-29T06:42:00.481Z,101095.19
2022-10-29T06:44:45.269Z,101106.66
2022-10-29T06:47:30.271Z,101108.66
2022-10-29T06:50:15.399Z,101098.28
2022-10-29T06:53:03.039Z,101107.22
2022-10-29T06:55:48.152Z,101107.31
2022-10-29T06:58:33.341Z,101110.94
2022-10-29T07:01:18.401Z,101087.53
2022-10-29T07:04:03.362Z,101093.84
2022-10-29T07:06:48.295Z,101088.59
2022-10-29T07:09:33.353Z,101081.22
2022-10-29T07:12:18.353Z,101069.38
2022-10-29T07:15:03.557Z,101062.09
2022-10-29T07:17:59.219Z,101063.06
2022-10-29T07:20:45.472Z,101090.16
2022-10-29T07:26:15.728Z,101097.34
2022-10-29T07:29:00.829Z,101111.88
2022-10-29T07:31:46.069Z,101098.91
2022-10-29T07:34:30.974Z,101099.19
2022-10-29T07:37:15.940Z,101096.94
2022-10-29T07:40:01.095Z,101087.84
2022-10-29T07:42:46.162Z,101086.66
2022-10-29T07:45:31.903Z,101084.94
2022-10-29T07:48:18.324Z,101106.13
2022-10-29T07:51:03.269Z,101101.13
2022-10-29T07:53:48.445Z,101118.72
2022-10-29T07:56:33.679Z,101098.81
2022-10-29T07:59:19.448Z,101116.91
2022-10-29T08:02:04.672Z,101122.03
2022-10-29T08:04:49.807Z,101112.00
2022-10-29T08:07:34.633Z,101116.09
2022-10-29T08:10:20.125Z,101114.78
2022-10-29T08:13:06.441Z,101127.63
2022-10-29T08:15:51.763Z,101127.13
2022-10-29T08:18:37.085Z,101123.91
2022-10-29T08:21:22.563Z,101127.88
2022-10-29T08:24:07.968Z,101128.13
2022-10-29T08:26:53.303Z,101125.97
2022-10-29T08:29:38.356Z,101128.00
2022-10-29T08:32:23.464Z,101134.47
2022-10-29T08:35:08.796Z,101123.44
2022-10-29T08:37:54.106Z,101133.59
2022-10-29T08:40:46.689Z,101125.09
2022-10-29T08:43:34.780Z,101097.16
2022-10-29T08:46:48.894Z,101106.28
2022-10-29T08:49:44.804Z,101119.59
2022-10-29T08:52:36.942Z,101112.72
2022-10-29T08:55:37.118Z,101121.69
2022-10-29T08:58:33.521Z,101113.88
2022-10-29T09:01:21.809Z,101117.28
2022-10-29T09:04:23.563Z,101115.00
2022-10-29T09:07:14.952Z,101110.66
2022-10-29T09:10:22.824Z,101114.31
2022-10-29T09:13:38.313Z,101091.13
2022-10-29T09:16:43.126Z,101086.09
2022-10-29T09:19:37.242Z,101085.91
2022-10-29T09:22:25.261Z,101080.56
2022-10-29T09:25:29.761Z,101085.03
2022-10-29T09:28:26.898Z,101085.66
2022-10-29T09:31:30.109Z,101082.25
2022-10-29T09:34:34.233Z,101078.50
2022-10-29T09:37:35.706Z,101097.34
2022-10-29T09:40:32.159Z,101099.44
2022-10-29T09:43:39.290Z,101098.78
2022-10-29T09:46:39.457Z,101090.44
2022-10-29T09:49:43.222Z,101104.00
2022-10-29T09:52:32.269Z,101101.81
2022-10-29T09:55:23.410Z,101078.75
2022-10-29T09:58:20.108Z,101091.88
2022-10-29T10:01:05.471Z,101105.84
2022-10-29T10:03:59.298Z,101093.72
2022-10-29T10:07:05.302Z,101107.38
2022-10-29T10:09:59.746Z,101118.69
2022-10-29T10:12:47.838Z,101120.06
2022-10-29T10:15:33.045Z,101130.09
2022-10-29T10:18:23.936Z,101131.59
2022-10-29T10:21:35.320Z,101109.97
2022-10-29T10:24:35.633Z,101096.16
2022-10-29T10:27:29.220Z,101118.69
2022-10-29T10:30:17.851Z,101103.47
2022-10-29T10:36:13.639Z,101097.88
2022-10-29T10:39:00.351Z,101098.81
2022-10-29T10:41:45.806Z,101105.72
2022-10-29T10:44:31.411Z,101101.50
2022-10-29T10:47:19.050Z,101094.44
2022-10-29T10:50:18.548Z,101110.44
2022-10-29T10:53:17.509Z,101099.34
2022-10-29T10:56:03.015Z,101098.72
2022-10-29T10:59:06.643Z,101094.88
2022-10-29T11:01:53.234Z,101093.81
2022-10-29T11:04:41.225Z,101098.66
2022-10-29T11:07:34.071Z,101091.97
2022-10-29T11:10:24.835Z,101074.13
2022-10-29T11:13:20.666Z,101087.34
2022-10-29T11:16:24.811Z,101081.78
2022-10-29T11:19:16.763Z,101089.94
2022-10-29T11:22:06.609Z,101091.41
2022-10-29T11:24:58.809Z,101078.47
2022-10-29T11:28:03.395Z,101087.34
2022-10-29T11:31:13.285Z,101073.41
2022-10-29T11:34:24.877Z,101073.72
2022-10-29T11:37:21.531Z,101064.75
2022-10-29T11:40:14.793Z,101074.63
2022-10-29T11:43:07.079Z,101068.56
2022-10-29T11:46:17.797Z,101069.91
2022-10-29T11:49:48.142Z,101065.75
2022-10-29T11:52:42.309Z,101066.59
2022-10-29T11:56:00.820Z,101055.00
2022-10-29T11:58:51.634Z,101059.00
2022-10-29T12:01:57.861Z,101052.88
2022-10-29T12:04:53.923Z,101041.91
2022-10-29T12:07:47.886Z,101040.16
2022-10-29T12:10:51.202Z,101031.28
2022-10-29T12:13:45.059Z,101034.31
2022-10-29T12:16:51.361Z,101033.50
2022-10-29T12:19:57.995Z,101030.19
2022-10-29T12:23:04.950Z,101031.69
2022-10-29T12:25:54.002Z,101033.97
2022-10-29T12:29:03.068Z,101033.28
2022-10-29T12:31:56.269Z,101038.13
2022-10-29T12:34:52.589Z,101014.94
2022-10-29T12:37:43.303Z,101028.44
2022-10-29T12:40:35.126Z,101018.91
2022-10-29T12:43:28.317Z,101013.38
2022-10-29T12:46:25.765Z,101012.59
2022-10-29T12:49:40.169Z,101024.97
2022-10-29T12:52:55.983Z,101031.09
2022-10-29T12:55:44.362Z,101025.63
2022-10-29T12:58:48.776Z,101021.00
2022-10-29T13:04:38.965Z,101008.06
2022-10-29T13:07:24.502Z,101010.88
2022-10-29T13:10:29.629Z,101007.38
2022-10-29T13:13:15.035Z,101010.56
2022-10-29T13:16:03.627Z,101005.56
2022-10-29T13:19:06.062Z,100989.25
2022-10-29T13:21:54.634Z,100990.09
2022-10-29T13:24:39.965Z,100994.28
2022-10-29T13:27:27.713Z,100991.44
2022-10-29T13:30:15.769Z,100993.94
2022-10-29T13:33:01.153Z,100979.41
2022-10-29T13:35:53.497Z,100975.59
2022-10-29T13:39:04.504Z,100976.94
2022-10-29T13:41:54.199Z,100969.22
2022-10-29T13:44:39.199Z,100978.00
2022-10-29T13:47:25.697Z,100967.88
2022-10-29T13:50:14.817Z,100969.59
2022-10-29T13:53:03.222Z,100974.28
2022-10-29T13:55:50.413Z,100984.50
2022-10-29T13:58:37.195Z,100985.31
2022-10-29T14:01:24.592Z,100983.84
2022-10-29T14:04:33.011Z,100988.50
2022-10-29T14:07:26.308Z,100983.84
2022-10-29T14:10:23.433Z,100988.66
2022-10-29T14:13:46.485Z,100963.34
2022-10-29T14:16:32.959Z,100986.97
2022-10-29T14:19:21.547Z,100981.09
2022-10-29T14:22:35.578Z,100989.25
2022-10-29T14:25:34.059Z,100987.13
2022-10-29T14:28:31.555Z,100989.69
2022-10-29T14:31:24.953Z,100968.38
2022-10-29T14:34:25.092Z,100986.41
2022-10-29T14:37:41.390Z,100995.03
2022-10-29T14:40:26.417Z,100972.06
2022-10-29T14:43:30.311Z,100962.59
2022-10-29T14:46:30.571Z,100973.72
2022-10-29T14:49:23.216Z,100987.53
2022-10-29T14:52:26.497Z,100990.34
2022-10-29T14:55:19.808Z,100983.66
2022-10-29T14:58:19.518Z,100992.13
2022-10-29T15:01:09.859Z,100977.97
2022-10-29T15:04:02.001Z,100988.81
2022-10-29T15:06:46.988Z,100989.09
2022-10-29T15:09:32.131Z,101001.72
2022-10-29T15:12:20.686Z,101001.38
2022-10-29T15:15:30.049Z,100992.59
2022-10-29T15:18:21.777Z,100981.63
2022-10-29T15:21:07.081Z,100985.63
2022-10-29T15:23:58.661Z,100979.94
2022-10-29T15:26:47.907Z,100997.22
2022-10-29T15:29:43.105Z,100994.56
2022-10-29T15:32:31.529Z,100989.75
2022-10-29T15:35:21.536Z,100982.25
2022-10-29T15:38:38.123Z,100973.63
2022-10-29T15:41:36.213Z,100967.22
2022-10-29T15:44:31.316Z,100977.00
2022-10-29T15:47:26.333Z,100980.09
2022-10-29T15:50:14.045Z,100962.09
2022-10-29T15:53:05.577Z,100964.97
2022-10-29T15:55:52.808Z,100957.97
2022-10-29T15:58:37.816Z,100968.56
2022-10-29T16:01:23.167Z,100978.41
2022-10-29T16:04:09.444Z,100965.16
2022-10-29T16:06:55.118Z,100957.03
2022-10-29T16:09:46.808Z,100974.41
2022-10-29T16:12:32.235Z,100981.09
2022-10-29T16:15:19.542Z,100976.59
2022-10-29T16:18:04.584Z,100968.16
2022-10-29T16:20:52.112Z,100976.72
2022-10-29T16:23:38.378Z,100989.59
2022-10-29T16:26:25.117Z,101006.13
2022-10-29T16:29:10.408Z,100995.56
2022-10-29T16:31:55.648Z,100987.25
2022-10-29T16:34:40.939Z,100960.38
2022-10-29T16:37:26.021Z,100963.88
2022-10-29T16:40:12.304Z,100975.47
2022-10-29T16:42:57.943Z,100988.25
2022-10-29T16:45:43.481Z,101027.72
2022-10-29T16:48:28.656Z,101020.78
2022-10-29T16:51:13.851Z,101016.88
2022-10-29T16:53:58.999Z,101029.00
2022-10-29T16:56:44.003Z,101029.97
2022-10-29T16:59:28.845Z,101032.38
2022-10-29T17:02:13.722Z,101030.31
2022-10-29T17:04:59.239Z,101013.34
2022-10-29T17:07:44.147Z,101031.06
2022-10-29T17:10:31.166Z,101031.66
2022-10-29T17:13:16.260Z,101031.94
2022-10-29T17:16:05.173Z,101035.53
2022-10-29T17:18:51.902Z,101030.41
2022-10-29T17:21:36.776Z,101018.56
2022-10-29T17:24:21.889Z,101034.72
2022-10-29T17:27:06.688Z,101031.81
2022-10-29T17:29:51.877Z,101035.00
2022-10-29T17:32:36.977Z,101037.25
2022-10-29T17:35:22.223Z,101036.28
2022-10-29T17:38:06.991Z,101041.47
2022-10-29T17:40:51.954Z,101035.34
2022-10-29T17:43:37.223Z,101055.94
2022-10-29T17:46:22.318Z,101064.59
2022-10-29T17:49:07.653Z,101064.19
2022-10-29T17:51:53.074Z,101055.78
2022-10-29T17:54:38.461Z,101056.50
2022-10-29T17:57:23.671Z,101065.44
2022-10-29T18:00:09.532Z,101056.50
2022-10-29T18:02:54.804Z,101063.72
2022-10-29T18:05:40.251Z,101071.00
2022-10-29T18:08:25.494Z,101071.41
2022-10-29T18:11:14.380Z,101079.50
2022-10-29T18:13:59.591Z,101092.72
2022-10-29T18:16:45.729Z,101093.19
2022-10-29T18:19:30.524Z,101093.47
2022-10-29T18:22:15.640Z,101096.22
2022-10-29T18:25:01.037Z,101091.50
2022-10-29T18:27:46.261Z,101082.84
2022-10-29T18:30:31.183Z,101086.34
2022-10-29T18:33:16.060Z,101081.19
2022-10-29T18:36:01.014Z,101060.41
2022-10-29T18:38:54.175Z,101052.91
2022-10-29T18:41:40.426Z,101060.28
2022-10-29T18:44:26.899Z,101080.34
2022-10-29T18:47:11.991Z,101084.09
2022-10-29T18:49:56.844Z,101075.44
2022-10-29T18:52:41.715Z,101077.97
2022-10-29T18:55:26.633Z,101082.72
2022-10-29T18:58:11.773Z,101070.75
2022-10-29T19:01:13.403Z,101083.25
2022-10-29T19:04:00.665Z,101080.75
2022-10-29T19:06:46.045Z,101093.31
2022-10-29T19:09:31.159Z,101096.94
2022-10-29T19:12:16.110Z,101069.88
2022-10-29T19:15:01.077Z,101088.72
2022-10-29T19:17:45.937Z,101083.00
2022-10-29T19:20:34.112Z,101084.38
2022-10-29T19:23:19.144Z,101092.59
2022-10-29T19:26:12.980Z,101101.41
2022-10-29T19:29:03.370Z,101091.06
2022-10-29T19:31:48.737Z,101104.75
2022-10-29T19:34:34.091Z,101106.13
2022-10-29T19:37:19.079Z,101112.25
2022-10-29T19:40:04.468Z,101114.22
2022-10-29T19:42:49.361Z,101083.28
2022-10-29T19:45:34.314Z,101100.53
2022-10-29T19:48:19.487Z,101085.78
2022-10-29T19:51:05.561Z,101094.56
2022-10-29T19:53:51.626Z,101097.22
2022-10-29T19:56:36.769Z,101093.44
2022-10-29T19:59:24.432Z,101101.94
2022-10-29T20:02:10.956Z,101112.53
2022-10-29T20:04:56.181Z,101097.19
2022-10-29T20:07:41.213Z,101108.19
2022-10-29T20:10:26.051Z,101114.59
2022-10-29T20:13:10.973Z,101122.41
2022-10-29T20:15:56.528Z,101126.03
2022-10-29T20:18:41.307Z,101123.53
2022-10-29T20:21:26.511Z,101131.47
2022-10-29T20:24:11.679Z,101106.22
2022-10-29T20:26:56.693Z,101104.81
2022-10-29T20:29:41.516Z,101124.63
2022-10-29T20:32:26.712Z,101127.28
2022-10-29T20:35:11.921Z,101115.88
2022-10-29T20:37:57.190Z,101122.00
2022-10-29T20:40:42.999Z,101119.34
2022-10-29T20:43:28.470Z,101122.13
2022-10-29T20:46:13.312Z,101120.53
2022-10-29T20:48:58.186Z,101118.34
2022-10-29T20:51:43.395Z,101140.06
2022-10-29T20:54:29.021Z,101149.00
2022-10-29T20:57:14.161Z,101151.19
2022-10-29T20:59:59.521Z,101145.91
2022-10-29T21:02:44.725Z,101148.69
2022-10-29T21:05:29.695Z,101141.00
2022-10-29T21:08:14.644Z,101131.38
2022-10-29T21:11:06.305Z,101142.13
2022-10-29T21:13:51.475Z,101129.53
2022-10-29T21:16:36.683Z,101155.06
2022-10-29T21:19:22.778Z,101152.81
2022-10-29T21:22:08.161Z,101174.69
2022-10-29T21:24:53.327Z,101168.41
2022-10-29T21:27:38.175Z,101160.47
2022-10-29T21:30:23.203Z,101159.66
2022-10-29T21:33:09.915Z,101161.72
2022-10-29T21:35:56.703Z,101160.03
2022-10-29T21:38:41.767Z,101171.72
2022-10-29T21:41:26.844Z,101166.16
2022-10-29T21:44:11.981Z,101160.84
2022-10-29T21:46:57.147Z,101172.56
2022-10-29T21:49:42.061Z,101172.84
2022-10-29T21:52:26.942Z,101185.06
2022-10-29T21:55:12.290Z,101178.28
2022-10-29T21:57:57.862Z,101185.63
2022-10-29T22:00:43.413Z,101176.72
2022-10-29T22:03:31.558Z,101155.06
2022-10-29T22:06:21.938Z,101165.28
2022-10-29T22:09:07.276Z,101164.72
2022-10-29T22:11:52.346Z,101166.94
2022-10-29T22:14:37.203Z,101156.63
2022-10-29T22:17:22.136Z,101178.06
2022-10-29T22:20:07.247Z,101187.81
2022-10-29T22:22:52.108Z,101188.09
2022-10-29T22:25:37.277Z,101178.16
2022-10-29T22:28:22.389Z,101179.16
2022-10-29T22:31:07.614Z,101193.91
2022-10-29T22:33:52.788Z,101201.84
2022-10-29T22:36:38.197Z,101206.69
2022-10-29T22:39:25.327Z,101216.28
2022-10-29T22:42:10.860Z,101213.91
2022-10-29T22:44:55.911Z,101188.25
2022-10-29T22:47:40.807Z,101187.72
2022-10-29T22:50:25.786Z,101196.38
2022-10-29T22:53:10.731Z,101208.88
2022-10-29T22:55:56.183Z,101211.66
2022-10-29T22:58:42.508Z,101216.25
2022-10-29T23:01:36.258Z,101203.03
2022-10-29T23:04:24.000Z,101216.53
2022-10-29T23:07:09.256Z,101219.41
2022-10-29T23:09:54.854Z,101208.25
2022-10-29T23:12:40.112Z,101201.53
2022-10-29T23:15:25.207Z,101193.31
2022-10-29T23:18:10.124Z,101203.22
2022-10-29T23:21:02.450Z,101203.22
2022-10-29T23:23:51.467Z,101186.81
2022-10-29T23:26:37.176Z,101181.19
2022-10-29T23:29:22.433Z,101192.84
2022-10-29T23:32:07.315Z,101166.59
2022-10-29T23:34:52.224Z,101177.06
2022-10-29T23:37:37.028Z,101180.88
2022-10-29T23:40:22.142Z,101176.56
2022-10-29T23:43:07.234Z,101199.19
2022-10-29T23:45:52.334Z,101202.06
2022-10-29T23:48:37.538Z,101192.53
2022-10-29T23:51:22.763Z,101190.88
2022-10-29T23:54:07.826Z,101168.56
2022-10-29T23:56:52.921Z,101193.06
2022-10-29T23:59:37.876Z,101192.88
